sensor_id;sensor_type;location;lat;lon;timestamp;temperature;humidity
24468;DHT22;12634;50.852;5.676;2024-03-06T00:01:06;6.50;99.90
24468;DHT22;12634;50.852;5.676;2024-03-06T00:03:33;6.60;99.90
24468;DHT22;12634;50.852;5.676;2024-03-06T00:06:00;6.60;99.90
24468;DHT22;12634;50.852;5.676;2024-03-06T00:08:27;6.50;99.90
24468;DHT22;12634;50.852;5.676;2024-03-06T00:10:55;6.50;99.90
24468;DHT22;12634;50.852;5.676;2024-03-06T00:13:22;6.40;99.90
24468;DHT22;12634;50.852;5.676;2024-03-06T00:15:49;6.30;99.90
24468;DHT22;12634;50.852;5.676;2024-03-06T00:18:17;6.30;99.90
24468;DHT22;12634;50.852;5.676;2024-03-06T00:20:45;6.30;99.90
24468;DHT22;12634;50.852;5.676;2024-03-06T00:23:12;6.30;99.90
24468;DHT22;12634;50.852;5.676;2024-03-06T00:25:39;6.10;99.90
24468;DHT22;12634;50.852;5.676;2024-03-06T00:28:06;6.10;99.90
24468;DHT22;12634;50.852;5.676;2024-03-06T00:30:33;6.00;99.90
24468;DHT22;12634;50.852;5.676;2024-03-06T00:33:00;6.10;99.90
24468;DHT22;12634;50.852;5.676;2024-03-06T00:35:29;6.00;99.90
24468;DHT22;12634;50.852;5.676;2024-03-06T00:37:56;6.00;99.90
24468;DHT22;12634;50.852;5.676;2024-03-06T00:40:27;6.00;99.90
24468;DHT22;12634;50.852;5.676;2024-03-06T00:42:56;5.80;99.90
24468;DHT22;12634;50.852;5.676;2024-03-06T00:45:23;5.70;99.90
24468;DHT22;12634;50.852;5.676;2024-03-06T00:47:51;5.80;99.90
24468;DHT22;12634;50.852;5.676;2024-03-06T00:50:18;5.70;99.90
24468;DHT22;12634;50.852;5.676;2024-03-06T00:52:49;5.70;99.90
24468;DHT22;12634;50.852;5.676;2024-03-06T00:55:16;5.60;99.90
24468;DHT22;12634;50.852;5.676;2024-03-06T00:57:43;5.50;99.90
24468;DHT22;12634;50.852;5.676;2024-03-06T01:00:11;5.50;99.90
24468;DHT22;12634;50.852;5.676;2024-03-06T01:02:39;5.30;99.90
24468;DHT22;12634;50.852;5.676;2024-03-06T01:05:07;5.30;99.90
24468;DHT22;12634;50.852;5.676;2024-03-06T01:07:36;5.20;99.90
24468;DHT22;12634;50.852;5.676;2024-03-06T01:10:07;5.20;99.90
24468;DHT22;12634;50.852;5.676;2024-03-06T01:12:34;5.50;99.90
24468;DHT22;12634;50.852;5.676;2024-03-06T01:15:01;5.40;99.90
24468;DHT22;12634;50.852;5.676;2024-03-06T01:17:29;5.20;99.90
24468;DHT22;12634;50.852;5.676;2024-03-06T01:19:56;5.20;99.90
24468;DHT22;12634;50.852;5.676;2024-03-06T01:22:25;5.10;99.90
24468;DHT22;12634;50.852;5.676;2024-03-06T01:24:52;5.10;99.90
24468;DHT22;12634;50.852;5.676;2024-03-06T01:27:20;5.10;99.90
24468;DHT22;12634;50.852;5.676;2024-03-06T01:29:48;5.00;99.90
24468;DHT22;12634;50.852;5.676;2024-03-06T01:32:15;4.90;99.90
24468;DHT22;12634;50.852;5.676;2024-03-06T01:34:42;4.90;99.90
24468;DHT22;12634;50.852;5.676;2024-03-06T01:37:09;4.80;99.90
24468;DHT22;12634;50.852;5.676;2024-03-06T01:39:36;4.80;99.90
24468;DHT22;12634;50.852;5.676;2024-03-06T01:42:03;4.80;99.90
24468;DHT22;12634;50.852;5.676;2024-03-06T01:44:32;4.80;99.90
24468;DHT22;12634;50.852;5.676;2024-03-06T01:46:59;4.80;99.90
24468;DHT22;12634;50.852;5.676;2024-03-06T01:49:26;4.70;99.90
24468;DHT22;12634;50.852;5.676;2024-03-06T01:51:56;4.80;99.90
24468;DHT22;12634;50.852;5.676;2024-03-06T01:54:24;4.80;99.90
24468;DHT22;12634;50.852;5.676;2024-03-06T01:56:52;4.80;99.90
24468;DHT22;12634;50.852;5.676;2024-03-06T01:59:21;4.70;99.90
24468;DHT22;12634;50.852;5.676;2024-03-06T02:01:53;4.80;99.90
24468;DHT22;12634;50.852;5.676;2024-03-06T02:04:20;4.70;99.90
24468;DHT22;12634;50.852;5.676;2024-03-06T02:06:49;4.70;99.90
24468;DHT22;12634;50.852;5.676;2024-03-06T02:09:16;4.80;99.90
24468;DHT22;12634;50.852;5.676;2024-03-06T02:11:45;4.80;99.90
24468;DHT22;12634;50.852;5.676;2024-03-06T02:14:12;4.70;99.90
24468;DHT22;12634;50.852;5.676;2024-03-06T02:16:39;4.70;99.90
24468;DHT22;12634;50.852;5.676;2024-03-06T02:19:08;4.70;99.90
24468;DHT22;12634;50.852;5.676;2024-03-06T02:21:37;4.60;99.90
24468;DHT22;12634;50.852;5.676;2024-03-06T02:24:04;4.60;99.90
24468;DHT22;12634;50.852;5.676;2024-03-06T02:26:31;4.60;99.90
24468;DHT22;12634;50.852;5.676;2024-03-06T02:28:58;4.60;99.90
24468;DHT22;12634;50.852;5.676;2024-03-06T02:31:26;4.50;99.90
24468;DHT22;12634;50.852;5.676;2024-03-06T02:33:53;4.60;99.90
24468;DHT22;12634;50.852;5.676;2024-03-06T02:36:20;4.50;99.90
24468;DHT22;12634;50.852;5.676;2024-03-06T02:38:49;4.60;99.90
24468;DHT22;12634;50.852;5.676;2024-03-06T02:41:16;4.50;99.90
24468;DHT22;12634;50.852;5.676;2024-03-06T02:43:43;4.50;99.90
24468;DHT22;12634;50.852;5.676;2024-03-06T02:46:10;4.50;99.90
24468;DHT22;12634;50.852;5.676;2024-03-06T02:48:37;4.40;99.90
24468;DHT22;12634;50.852;5.676;2024-03-06T02:51:08;4.30;99.90
24468;DHT22;12634;50.852;5.676;2024-03-06T02:53:35;4.30;99.90
24468;DHT22;12634;50.852;5.676;2024-03-06T02:56:04;4.20;99.90
24468;DHT22;12634;50.852;5.676;2024-03-06T02:58:32;4.10;99.90
24468;DHT22;12634;50.852;5.676;2024-03-06T03:00:59;4.00;99.90
24468;DHT22;12634;50.852;5.676;2024-03-06T03:03:27;4.00;99.90
24468;DHT22;12634;50.852;5.676;2024-03-06T03:05:55;4.00;99.90
24468;DHT22;12634;50.852;5.676;2024-03-06T03:08:22;4.10;99.90
24468;DHT22;12634;50.852;5.676;2024-03-06T03:10:49;4.10;99.90
24468;DHT22;12634;50.852;5.676;2024-03-06T03:13:18;4.00;99.90
24468;DHT22;12634;50.852;5.676;2024-03-06T03:15:45;4.00;99.90
24468;DHT22;12634;50.852;5.676;2024-03-06T03:18:13;3.80;99.90
24468;DHT22;12634;50.852;5.676;2024-03-06T03:20:40;4.00;99.90
24468;DHT22;12634;50.852;5.676;2024-03-06T03:23:07;4.00;99.90
24468;DHT22;12634;50.852;5.676;2024-03-06T03:25:37;3.90;99.90
24468;DHT22;12634;50.852;5.676;2024-03-06T03:28:05;3.90;99.90
24468;DHT22;12634;50.852;5.676;2024-03-06T03:30:33;3.90;99.90
24468;DHT22;12634;50.852;5.676;2024-03-06T03:33:01;3.90;99.90
24468;DHT22;12634;50.852;5.676;2024-03-06T03:35:28;3.90;99.90
24468;DHT22;12634;50.852;5.676;2024-03-06T03:37:57;4.00;99.90
24468;DHT22;12634;50.852;5.676;2024-03-06T03:40:24;3.90;99.90
24468;DHT22;12634;50.852;5.676;2024-03-06T03:42:51;4.00;99.90
24468;DHT22;12634;50.852;5.676;2024-03-06T03:45:19;4.00;99.90
24468;DHT22;12634;50.852;5.676;2024-03-06T03:47:47;4.00;99.90
24468;DHT22;12634;50.852;5.676;2024-03-06T03:50:13;4.00;99.90
24468;DHT22;12634;50.852;5.676;2024-03-06T03:52:41;4.00;99.90
24468;DHT22;12634;50.852;5.676;2024-03-06T03:55:09;4.00;99.90
24468;DHT22;12634;50.852;5.676;2024-03-06T03:57:37;3.90;99.90
24468;DHT22;12634;50.852;5.676;2024-03-06T04:00:05;4.00;99.90
24468;DHT22;12634;50.852;5.676;2024-03-06T04:02:36;3.90;99.90
24468;DHT22;12634;50.852;5.676;2024-03-06T04:05:06;3.90;99.90
24468;DHT22;12634;50.852;5.676;2024-03-06T04:07:35;4.00;99.90
24468;DHT22;12634;50.852;5.676;2024-03-06T04:10:03;4.00;99.90
24468;DHT22;12634;50.852;5.676;2024-03-06T04:12:30;4.00;99.90
24468;DHT22;12634;50.852;5.676;2024-03-06T04:14:57;3.90;99.90
24468;DHT22;12634;50.852;5.676;2024-03-06T04:17:25;3.90;99.90
24468;DHT22;12634;50.852;5.676;2024-03-06T04:19:52;4.00;99.90
24468;DHT22;12634;50.852;5.676;2024-03-06T04:22:22;4.00;99.90
24468;DHT22;12634;50.852;5.676;2024-03-06T04:24:49;3.90;99.90
24468;DHT22;12634;50.852;5.676;2024-03-06T04:27:17;3.90;99.90
24468;DHT22;12634;50.852;5.676;2024-03-06T04:29:44;3.90;99.90
24468;DHT22;12634;50.852;5.676;2024-03-06T04:32:11;3.80;99.90
24468;DHT22;12634;50.852;5.676;2024-03-06T04:34:38;3.90;99.90
24468;DHT22;12634;50.852;5.676;2024-03-06T04:37:05;3.90;99.90
24468;DHT22;12634;50.852;5.676;2024-03-06T04:39:34;3.80;99.90
24468;DHT22;12634;50.852;5.676;2024-03-06T04:42:01;3.80;99.90
24468;DHT22;12634;50.852;5.676;2024-03-06T04:44:28;3.80;99.90
24468;DHT22;12634;50.852;5.676;2024-03-06T04:46:55;3.70;99.90
24468;DHT22;12634;50.852;5.676;2024-03-06T04:49:22;3.80;99.90
24468;DHT22;12634;50.852;5.676;2024-03-06T04:51:50;3.80;99.90
24468;DHT22;12634;50.852;5.676;2024-03-06T04:54:17;3.80;99.90
24468;DHT22;12634;50.852;5.676;2024-03-06T04:56:45;3.80;99.90
24468;DHT22;12634;50.852;5.676;2024-03-06T04:59:12;3.80;99.90
24468;DHT22;12634;50.852;5.676;2024-03-06T05:01:40;3.70;99.90
24468;DHT22;12634;50.852;5.676;2024-03-06T05:04:09;3.70;99.90
24468;DHT22;12634;50.852;5.676;2024-03-06T05:06:37;3.70;99.90
24468;DHT22;12634;50.852;5.676;2024-03-06T05:09:04;3.60;99.90
24468;DHT22;12634;50.852;5.676;2024-03-06T05:11:31;3.60;99.90
24468;DHT22;12634;50.852;5.676;2024-03-06T05:14:00;3.60;99.90
24468;DHT22;12634;50.852;5.676;2024-03-06T05:16:28;3.60;99.90
24468;DHT22;12634;50.852;5.676;2024-03-06T05:18:55;3.60;99.90
24468;DHT22;12634;50.852;5.676;2024-03-06T05:21:23;3.50;99.90
24468;DHT22;12634;50.852;5.676;2024-03-06T05:23:50;3.60;99.90
24468;DHT22;12634;50.852;5.676;2024-03-06T05:26:18;3.50;99.90
24468;DHT22;12634;50.852;5.676;2024-03-06T05:28:45;3.50;99.90
24468;DHT22;12634;50.852;5.676;2024-03-06T05:31:20;3.50;99.90
24468;DHT22;12634;50.852;5.676;2024-03-06T05:33:49;3.40;99.90
24468;DHT22;12634;50.852;5.676;2024-03-06T05:36:16;3.50;99.90
24468;DHT22;12634;50.852;5.676;2024-03-06T05:38:44;3.40;99.90
24468;DHT22;12634;50.852;5.676;2024-03-06T05:41:11;3.40;99.90
24468;DHT22;12634;50.852;5.676;2024-03-06T05:43:38;3.30;99.90
24468;DHT22;12634;50.852;5.676;2024-03-06T05:46:06;3.00;99.90
24468;DHT22;12634;50.852;5.676;2024-03-06T05:48:35;2.90;99.90
24468;DHT22;12634;50.852;5.676;2024-03-06T05:51:02;2.60;99.90
24468;DHT22;12634;50.852;5.676;2024-03-06T05:53:29;2.40;99.90
24468;DHT22;12634;50.852;5.676;2024-03-06T05:55:56;2.40;99.90
24468;DHT22;12634;50.852;5.676;2024-03-06T05:58:23;2.60;99.90
24468;DHT22;12634;50.852;5.676;2024-03-06T06:00:51;2.90;99.90
24468;DHT22;12634;50.852;5.676;2024-03-06T06:03:18;3.00;99.90
24468;DHT22;12634;50.852;5.676;2024-03-06T06:05:46;3.00;99.90
24468;DHT22;12634;50.852;5.676;2024-03-06T06:08:13;2.80;99.90
24468;DHT22;12634;50.852;5.676;2024-03-06T06:10:41;2.60;99.90
24468;DHT22;12634;50.852;5.676;2024-03-06T06:13:08;2.40;99.90
24468;DHT22;12634;50.852;5.676;2024-03-06T06:15:35;2.70;99.90
24468;DHT22;12634;50.852;5.676;2024-03-06T06:18:02;2.80;99.90
24468;DHT22;12634;50.852;5.676;2024-03-06T06:20:30;2.80;99.90
24468;DHT22;12634;50.852;5.676;2024-03-06T06:22:58;2.90;99.90
24468;DHT22;12634;50.852;5.676;2024-03-06T06:25:25;3.10;99.90
24468;DHT22;12634;50.852;5.676;2024-03-06T06:27:52;3.20;99.90
24468;DHT22;12634;50.852;5.676;2024-03-06T06:30:20;3.20;99.90
24468;DHT22;12634;50.852;5.676;2024-03-06T06:32:47;3.20;99.90
24468;DHT22;12634;50.852;5.676;2024-03-06T06:35:14;3.10;99.90
24468;DHT22;12634;50.852;5.676;2024-03-06T06:37:41;3.20;99.90
24468;DHT22;12634;50.852;5.676;2024-03-06T06:40:11;3.20;99.90
24468;DHT22;12634;50.852;5.676;2024-03-06T06:42:45;3.30;99.90
24468;DHT22;12634;50.852;5.676;2024-03-06T06:45:15;3.20;99.90
24468;DHT22;12634;50.852;5.676;2024-03-06T06:47:43;3.30;99.90
24468;DHT22;12634;50.852;5.676;2024-03-06T06:50:10;3.40;99.90
24468;DHT22;12634;50.852;5.676;2024-03-06T06:52:37;3.50;99.90
24468;DHT22;12634;50.852;5.676;2024-03-06T06:55:05;3.40;99.90
24468;DHT22;12634;50.852;5.676;2024-03-06T06:57:34;3.50;99.90
24468;DHT22;12634;50.852;5.676;2024-03-06T07:00:01;3.50;99.90
24468;DHT22;12634;50.852;5.676;2024-03-06T07:02:36;3.50;99.90
24468;DHT22;12634;50.852;5.676;2024-03-06T07:05:04;3.70;99.90
24468;DHT22;12634;50.852;5.676;2024-03-06T07:07:32;3.80;99.90
24468;DHT22;12634;50.852;5.676;2024-03-06T07:09:59;4.10;99.90
24468;DHT22;12634;50.852;5.676;2024-03-06T07:12:26;4.00;99.90
24468;DHT22;12634;50.852;5.676;2024-03-06T07:14:55;3.90;99.90
24468;DHT22;12634;50.852;5.676;2024-03-06T07:17:22;3.90;99.90
24468;DHT22;12634;50.852;5.676;2024-03-06T07:19:49;4.00;99.90
24468;DHT22;12634;50.852;5.676;2024-03-06T07:22:18;4.00;99.90
24468;DHT22;12634;50.852;5.676;2024-03-06T07:24:45;4.10;99.90
24468;DHT22;12634;50.852;5.676;2024-03-06T07:27:12;4.10;99.90
24468;DHT22;12634;50.852;5.676;2024-03-06T07:29:40;4.50;99.90
24468;DHT22;12634;50.852;5.676;2024-03-06T07:32:08;4.60;99.90
24468;DHT22;12634;50.852;5.676;2024-03-06T07:34:36;4.90;99.90
24468;DHT22;12634;50.852;5.676;2024-03-06T07:37:03;5.10;99.90
24468;DHT22;12634;50.852;5.676;2024-03-06T07:39:31;5.30;99.90
24468;DHT22;12634;50.852;5.676;2024-03-06T07:41:58;5.30;99.90
24468;DHT22;12634;50.852;5.676;2024-03-06T07:44:25;4.80;99.90
24468;DHT22;12634;50.852;5.676;2024-03-06T07:46:52;4.90;99.90
24468;DHT22;12634;50.852;5.676;2024-03-06T07:49:21;4.90;99.90
24468;DHT22;12634;50.852;5.676;2024-03-06T07:51:49;5.30;99.90
24468;DHT22;12634;50.852;5.676;2024-03-06T07:54:16;5.90;99.90
24468;DHT22;12634;50.852;5.676;2024-03-06T07:56:44;6.60;99.90
24468;DHT22;12634;50.852;5.676;2024-03-06T07:59:11;6.10;99.90
24468;DHT22;12634;50.852;5.676;2024-03-06T08:01:39;6.10;99.90
24468;DHT22;12634;50.852;5.676;2024-03-06T08:04:06;6.90;99.90
24468;DHT22;12634;50.852;5.676;2024-03-06T08:06:35;7.00;99.90
24468;DHT22;12634;50.852;5.676;2024-03-06T08:09:03;6.90;99.90
24468;DHT22;12634;50.852;5.676;2024-03-06T08:11:30;7.20;99.90
24468;DHT22;12634;50.852;5.676;2024-03-06T08:13:59;7.20;99.90
24468;DHT22;12634;50.852;5.676;2024-03-06T08:16:27;7.30;99.90
24468;DHT22;12634;50.852;5.676;2024-03-06T08:18:56;8.40;99.90
24468;DHT22;12634;50.852;5.676;2024-03-06T08:21:25;8.50;99.90
24468;DHT22;12634;50.852;5.676;2024-03-06T08:23:53;7.80;99.90
24468;DHT22;12634;50.852;5.676;2024-03-06T08:26:21;8.30;99.90
24468;DHT22;12634;50.852;5.676;2024-03-06T08:28:49;7.70;99.90
24468;DHT22;12634;50.852;5.676;2024-03-06T08:31:17;7.70;99.90
24468;DHT22;12634;50.852;5.676;2024-03-06T08:33:44;8.00;99.90
24468;DHT22;12634;50.852;5.676;2024-03-06T08:36:12;7.90;99.90
24468;DHT22;12634;50.852;5.676;2024-03-06T08:38:40;9.10;99.90
24468;DHT22;12634;50.852;5.676;2024-03-06T08:41:09;9.40;99.90
24468;DHT22;12634;50.852;5.676;2024-03-06T08:43:36;9.60;99.90
24468;DHT22;12634;50.852;5.676;2024-03-06T08:46:03;9.00;99.90
24468;DHT22;12634;50.852;5.676;2024-03-06T08:48:30;9.40;99.90
24468;DHT22;12634;50.852;5.676;2024-03-06T08:50:58;9.40;99.90
24468;DHT22;12634;50.852;5.676;2024-03-06T08:53:25;9.60;99.90
24468;DHT22;12634;50.852;5.676;2024-03-06T08:55:52;9.30;99.90
24468;DHT22;12634;50.852;5.676;2024-03-06T08:58:20;9.00;99.90
24468;DHT22;12634;50.852;5.676;2024-03-06T09:00:47;9.30;99.90
24468;DHT22;12634;50.852;5.676;2024-03-06T09:03:15;8.70;99.90
24468;DHT22;12634;50.852;5.676;2024-03-06T09:05:42;8.70;99.90
24468;DHT22;12634;50.852;5.676;2024-03-06T09:08:09;9.50;99.90
24468;DHT22;12634;50.852;5.676;2024-03-06T09:10:38;9.40;99.90
24468;DHT22;12634;50.852;5.676;2024-03-06T09:13:05;10.40;99.90
24468;DHT22;12634;50.852;5.676;2024-03-06T09:15:34;9.90;99.90
24468;DHT22;12634;50.852;5.676;2024-03-06T09:18:01;10.10;99.90
24468;DHT22;12634;50.852;5.676;2024-03-06T09:20:29;9.50;99.90
24468;DHT22;12634;50.852;5.676;2024-03-06T09:22:57;9.80;99.90
24468;DHT22;12634;50.852;5.676;2024-03-06T09:25:26;9.80;99.90
24468;DHT22;12634;50.852;5.676;2024-03-06T09:27:54;10.30;99.90
24468;DHT22;12634;50.852;5.676;2024-03-06T09:30:22;9.60;99.90
24468;DHT22;12634;50.852;5.676;2024-03-06T09:32:50;9.80;99.90
24468;DHT22;12634;50.852;5.676;2024-03-06T09:35:17;10.30;99.90
24468;DHT22;12634;50.852;5.676;2024-03-06T09:37:45;10.60;99.90
24468;DHT22;12634;50.852;5.676;2024-03-06T09:40:20;10.50;99.90
24468;DHT22;12634;50.852;5.676;2024-03-06T09:42:48;10.80;99.90
24468;DHT22;12634;50.852;5.676;2024-03-06T09:45:15;10.00;99.90
24468;DHT22;12634;50.852;5.676;2024-03-06T09:47:47;9.70;99.90
24468;DHT22;12634;50.852;5.676;2024-03-06T09:50:18;10.50;99.90
24468;DHT22;12634;50.852;5.676;2024-03-06T09:52:51;10.80;99.90
24468;DHT22;12634;50.852;5.676;2024-03-06T09:55:20;11.60;99.90
24468;DHT22;12634;50.852;5.676;2024-03-06T09:57:47;11.40;99.90
24468;DHT22;12634;50.852;5.676;2024-03-06T10:00:16;12.30;99.90
24468;DHT22;12634;50.852;5.676;2024-03-06T10:02:51;12.30;99.90
24468;DHT22;12634;50.852;5.676;2024-03-06T10:05:23;11.50;99.90
24468;DHT22;12634;50.852;5.676;2024-03-06T10:07:53;11.50;99.90
24468;DHT22;12634;50.852;5.676;2024-03-06T10:10:20;11.40;99.90
24468;DHT22;12634;50.852;5.676;2024-03-06T10:12:49;10.90;99.90
24468;DHT22;12634;50.852;5.676;2024-03-06T10:15:16;11.60;99.90
24468;DHT22;12634;50.852;5.676;2024-03-06T10:17:43;11.20;99.90
24468;DHT22;12634;50.852;5.676;2024-03-06T10:20:19;11.40;99.90
24468;DHT22;12634;50.852;5.676;2024-03-06T10:22:50;11.30;99.90
24468;DHT22;12634;50.852;5.676;2024-03-06T10:25:19;11.40;99.90
24468;DHT22;12634;50.852;5.676;2024-03-06T10:28:01;11.60;99.90
24468;DHT22;12634;50.852;5.676;2024-03-06T10:30:29;11.30;99.90
24468;DHT22;12634;50.852;5.676;2024-03-06T10:32:57;11.50;99.90
24468;DHT22;12634;50.852;5.676;2024-03-06T10:35:24;11.10;99.90
24468;DHT22;12634;50.852;5.676;2024-03-06T10:37:54;11.70;99.90
24468;DHT22;12634;50.852;5.676;2024-03-06T10:40:23;12.80;99.90
24468;DHT22;12634;50.852;5.676;2024-03-06T10:42:50;12.40;99.90
24468;DHT22;12634;50.852;5.676;2024-03-06T10:45:20;12.90;99.90
24468;DHT22;12634;50.852;5.676;2024-03-06T10:47:50;12.50;99.90
24468;DHT22;12634;50.852;5.676;2024-03-06T10:50:18;12.00;99.90
24468;DHT22;12634;50.852;5.676;2024-03-06T10:52:47;11.70;99.90
24468;DHT22;12634;50.852;5.676;2024-03-06T10:55:17;12.20;99.90
24468;DHT22;12634;50.852;5.676;2024-03-06T10:57:47;12.50;99.90
24468;DHT22;12634;50.852;5.676;2024-03-06T11:00:16;12.30;99.90
24468;DHT22;12634;50.852;5.676;2024-03-06T11:02:46;12.40;99.90
24468;DHT22;12634;50.852;5.676;2024-03-06T11:05:15;12.20;99.90
24468;DHT22;12634;50.852;5.676;2024-03-06T11:07:43;12.30;99.90
24468;DHT22;12634;50.852;5.676;2024-03-06T11:10:10;11.90;99.90
24468;DHT22;12634;50.852;5.676;2024-03-06T11:12:43;11.60;99.90
24468;DHT22;12634;50.852;5.676;2024-03-06T11:15:15;11.50;99.90
24468;DHT22;12634;50.852;5.676;2024-03-06T11:17:43;11.40;99.90
24468;DHT22;12634;50.852;5.676;2024-03-06T11:20:16;11.70;99.90
24468;DHT22;12634;50.852;5.676;2024-03-06T11:23:07;12.30;99.90
24468;DHT22;12634;50.852;5.676;2024-03-06T11:25:57;12.40;99.90
24468;DHT22;12634;50.852;5.676;2024-03-06T11:28:27;12.80;99.90
24468;DHT22;12634;50.852;5.676;2024-03-06T11:30:56;13.40;99.90
24468;DHT22;12634;50.852;5.676;2024-03-06T11:33:28;13.30;99.90
24468;DHT22;12634;50.852;5.676;2024-03-06T11:36:18;12.70;99.90
24468;DHT22;12634;50.852;5.676;2024-03-06T11:38:53;13.50;99.90
24468;DHT22;12634;50.852;5.676;2024-03-06T11:41:21;12.50;99.90
24468;DHT22;12634;50.852;5.676;2024-03-06T11:43:52;12.10;99.90
24468;DHT22;12634;50.852;5.676;2024-03-06T11:46:21;12.40;99.90
24468;DHT22;12634;50.852;5.676;2024-03-06T11:48:53;12.50;99.90
24468;DHT22;12634;50.852;5.676;2024-03-06T11:51:21;13.60;99.90
24468;DHT22;12634;50.852;5.676;2024-03-06T11:53:52;13.90;99.90
24468;DHT22;12634;50.852;5.676;2024-03-06T11:56:20;14.50;99.90
24468;DHT22;12634;50.852;5.676;2024-03-06T11:58:47;15.10;99.90
24468;DHT22;12634;50.852;5.676;2024-03-06T12:01:17;14.10;99.90
24468;DHT22;12634;50.852;5.676;2024-03-06T12:03:44;13.70;99.90
24468;DHT22;12634;50.852;5.676;2024-03-06T12:06:11;12.70;99.90
24468;DHT22;12634;50.852;5.676;2024-03-06T12:08:39;12.30;99.90
24468;DHT22;12634;50.852;5.676;2024-03-06T12:11:06;12.70;99.90
24468;DHT22;12634;50.852;5.676;2024-03-06T12:13:34;12.00;99.90
24468;DHT22;12634;50.852;5.676;2024-03-06T12:16:05;11.60;99.90
24468;DHT22;12634;50.852;5.676;2024-03-06T12:18:35;11.30;99.90
24468;DHT22;12634;50.852;5.676;2024-03-06T12:21:02;12.00;99.90
24468;DHT22;12634;50.852;5.676;2024-03-06T12:23:29;13.00;99.90
24468;DHT22;12634;50.852;5.676;2024-03-06T12:26:06;12.10;99.90
24468;DHT22;12634;50.852;5.676;2024-03-06T12:28:36;12.30;99.90
24468;DHT22;12634;50.852;5.676;2024-03-06T12:31:03;12.40;99.90
24468;DHT22;12634;50.852;5.676;2024-03-06T12:33:31;12.80;99.90
24468;DHT22;12634;50.852;5.676;2024-03-06T12:36:02;13.90;99.90
24468;DHT22;12634;50.852;5.676;2024-03-06T12:38:30;13.10;99.90
24468;DHT22;12634;50.852;5.676;2024-03-06T12:40:57;13.00;99.90
24468;DHT22;12634;50.852;5.676;2024-03-06T12:43:25;12.70;99.90
24468;DHT22;12634;50.852;5.676;2024-03-06T12:45:54;12.30;99.90
24468;DHT22;12634;50.852;5.676;2024-03-06T12:48:23;12.00;99.90
24468;DHT22;12634;50.852;5.676;2024-03-06T12:50:51;12.70;99.90
24468;DHT22;12634;50.852;5.676;2024-03-06T12:53:22;13.90;99.90
24468;DHT22;12634;50.852;5.676;2024-03-06T12:55:49;13.70;99.90
24468;DHT22;12634;50.852;5.676;2024-03-06T12:58:16;13.30;99.90
24468;DHT22;12634;50.852;5.676;2024-03-06T13:00:43;13.40;99.90
24468;DHT22;12634;50.852;5.676;2024-03-06T13:03:10;13.60;99.90
24468;DHT22;12634;50.852;5.676;2024-03-06T13:05:37;13.50;99.90
24468;DHT22;12634;50.852;5.676;2024-03-06T13:08:05;12.50;99.90
24468;DHT22;12634;50.852;5.676;2024-03-06T13:10:34;12.60;99.90
24468;DHT22;12634;50.852;5.676;2024-03-06T13:13:01;13.80;99.90
24468;DHT22;12634;50.852;5.676;2024-03-06T13:15:28;13.70;99.90
24468;DHT22;12634;50.852;5.676;2024-03-06T13:17:56;14.30;99.90
24468;DHT22;12634;50.852;5.676;2024-03-06T13:20:23;14.70;99.90
24468;DHT22;12634;50.852;5.676;2024-03-06T13:22:50;15.60;99.90
24468;DHT22;12634;50.852;5.676;2024-03-06T13:25:17;14.60;98.10
24468;DHT22;12634;50.852;5.676;2024-03-06T13:27:46;14.70;98.40
24468;DHT22;12634;50.852;5.676;2024-03-06T13:30:13;14.50;96.60
24468;DHT22;12634;50.852;5.676;2024-03-06T13:32:41;12.60;96.40
24468;DHT22;12634;50.852;5.676;2024-03-06T13:35:11;12.40;98.80
24468;DHT22;12634;50.852;5.676;2024-03-06T13:37:39;12.50;99.90
24468;DHT22;12634;50.852;5.676;2024-03-06T13:40:07;12.30;99.90
24468;DHT22;12634;50.852;5.676;2024-03-06T13:42:36;12.30;99.90
24468;DHT22;12634;50.852;5.676;2024-03-06T13:45:06;12.30;99.90
24468;DHT22;12634;50.852;5.676;2024-03-06T13:47:39;13.80;99.90
24468;DHT22;12634;50.852;5.676;2024-03-06T13:50:08;14.70;95.90
24468;DHT22;12634;50.852;5.676;2024-03-06T13:52:35;15.30;93.20
24468;DHT22;12634;50.852;5.676;2024-03-06T13:55:03;15.30;99.50
24468;DHT22;12634;50.852;5.676;2024-03-06T13:57:32;14.70;98.20
24468;DHT22;12634;50.852;5.676;2024-03-06T14:00:00;14.80;99.90
24468;DHT22;12634;50.852;5.676;2024-03-06T14:02:30;15.20;99.90
24468;DHT22;12634;50.852;5.676;2024-03-06T14:04:57;15.00;98.10
24468;DHT22;12634;50.852;5.676;2024-03-06T14:07:25;15.40;99.90
24468;DHT22;12634;50.852;5.676;2024-03-06T14:09:53;15.20;99.90
24468;DHT22;12634;50.852;5.676;2024-03-06T14:12:22;14.40;99.90
24468;DHT22;12634;50.852;5.676;2024-03-06T14:14:50;14.90;99.90
24468;DHT22;12634;50.852;5.676;2024-03-06T14:17:17;14.80;99.90
24468;DHT22;12634;50.852;5.676;2024-03-06T14:19:45;14.10;99.90
24468;DHT22;12634;50.852;5.676;2024-03-06T14:22:12;13.20;99.90
24468;DHT22;12634;50.852;5.676;2024-03-06T14:24:40;12.90;99.90
24468;DHT22;12634;50.852;5.676;2024-03-06T14:27:07;13.00;99.90
24468;DHT22;12634;50.852;5.676;2024-03-06T14:29:34;13.10;99.90
24468;DHT22;12634;50.852;5.676;2024-03-06T14:32:02;13.00;99.90
24468;DHT22;12634;50.852;5.676;2024-03-06T14:34:29;12.70;99.90
24468;DHT22;12634;50.852;5.676;2024-03-06T14:36:58;12.90;99.90
24468;DHT22;12634;50.852;5.676;2024-03-06T14:39:26;12.30;99.90
24468;DHT22;12634;50.852;5.676;2024-03-06T14:41:53;11.90;99.90
24468;DHT22;12634;50.852;5.676;2024-03-06T14:44:21;11.90;99.90
24468;DHT22;12634;50.852;5.676;2024-03-06T14:46:48;11.80;99.90
24468;DHT22;12634;50.852;5.676;2024-03-06T14:49:15;11.60;99.90
24468;DHT22;12634;50.852;5.676;2024-03-06T14:51:43;11.50;99.90
24468;DHT22;12634;50.852;5.676;2024-03-06T14:54:11;11.50;99.90
24468;DHT22;12634;50.852;5.676;2024-03-06T14:56:40;11.50;99.90
24468;DHT22;12634;50.852;5.676;2024-03-06T14:59:07;11.40;99.90
24468;DHT22;12634;50.852;5.676;2024-03-06T15:01:35;11.50;99.90
24468;DHT22;12634;50.852;5.676;2024-03-06T15:04:03;11.40;99.90
24468;DHT22;12634;50.852;5.676;2024-03-06T15:06:30;11.30;99.90
24468;DHT22;12634;50.852;5.676;2024-03-06T15:08:57;11.30;99.90
24468;DHT22;12634;50.852;5.676;2024-03-06T15:11:26;11.30;99.90
24468;DHT22;12634;50.852;5.676;2024-03-06T15:13:57;11.20;99.90
24468;DHT22;12634;50.852;5.676;2024-03-06T15:16:25;11.20;99.90
24468;DHT22;12634;50.852;5.676;2024-03-06T15:18:52;11.30;99.90
24468;DHT22;12634;50.852;5.676;2024-03-06T15:21:21;11.20;99.90
24468;DHT22;12634;50.852;5.676;2024-03-06T15:23:48;11.20;99.90
24468;DHT22;12634;50.852;5.676;2024-03-06T15:26:17;11.80;99.90
24468;DHT22;12634;50.852;5.676;2024-03-06T15:28:45;12.20;99.90
24468;DHT22;12634;50.852;5.676;2024-03-06T15:31:13;12.10;99.90
24468;DHT22;12634;50.852;5.676;2024-03-06T15:33:40;11.80;99.90
24468;DHT22;12634;50.852;5.676;2024-03-06T15:36:08;12.30;99.90
24468;DHT22;12634;50.852;5.676;2024-03-06T15:38:35;12.80;99.90
24468;DHT22;12634;50.852;5.676;2024-03-06T15:41:02;12.40;99.90
24468;DHT22;12634;50.852;5.676;2024-03-06T15:43:30;12.10;99.90
24468;DHT22;12634;50.852;5.676;2024-03-06T15:45:58;11.80;99.90